createdAt,value
2022-08-29T00:00:31.141Z,66.10
2022-08-29T00:03:00.157Z,66.20
2022-08-29T00:05:33.154Z,66.20
2022-08-29T00:08:02.175Z,66.50
2022-08-29T00:10:30.967Z,66.40
2022-08-29T00:12:57.861Z,66.20
2022-08-29T00:15:25.520Z,66.30
2022-08-29T00:17:52.851Z,66.40
2022-08-29T00:20:30.265Z,66.40
2022-08-29T00:23:02.218Z,66.60
2022-08-29T00:25:29.326Z,66.50
2022-08-29T00:27:56.015Z,66.60
2022-08-29T00:30:23.977Z,66.60
2022-08-29T00:32:51.209Z,66.80
2022-08-29T00:35:24.361Z,66.80
2022-08-29T00:37:52.038Z,67.00
2022-08-29T00:40:26.590Z,67.00
2022-08-29T00:42:53.584Z,67.30
2022-08-29T00:45:20.725Z,67.20
2022-08-29T00:48:00.888Z,67.20
2022-08-29T00:50:40.968Z,67.80
2022-08-29T00:53:11.888Z,67.90
2022-08-29T00:55:40.271Z,67.60
2022-08-29T00:58:28.418Z,67.60
2022-08-29T01:00:55.404Z,68.40
2022-08-29T01:03:22.124Z,67.80
2022-08-29T01:05:49.336Z,67.90
2022-08-29T01:08:16.389Z,68.00
2022-08-29T01:11:01.933Z,68.00
2022-08-29T01:13:34.892Z,68.20
2022-08-29T01:16:03.206Z,68.50
2022-08-29T01:18:33.988Z,68.40
2022-08-29T01:21:28.665Z,68.40
2022-08-29T01:24:01.268Z,69.10
2022-08-29T01:26:30.047Z,68.60
2022-08-29T01:28:57.279Z,68.90
2022-08-29T01:31:38.598Z,69.00
2022-08-29T01:34:15.524Z,69.20
2022-08-29T01:36:50.502Z,69.20
2022-08-29T01:39:23.599Z,69.60
2022-08-29T01:41:51.427Z,69.60
2022-08-29T01:44:19.988Z,69.20
2022-08-29T01:46:49.120Z,69.40
2022-08-29T01:49:18.031Z,69.50
2022-08-29T01:51:45.620Z,69.60
2022-08-29T01:54:12.926Z,70.30
2022-08-29T01:56:43.082Z,69.60
2022-08-29T01:59:14.095Z,69.70
2022-08-29T02:01:44.699Z,69.70
2022-08-29T02:04:11.774Z,69.60
2022-08-29T02:06:38.898Z,69.60
2022-08-29T02:09:06.375Z,69.70
2022-08-29T02:11:36.318Z,69.80
2022-08-29T02:14:04.490Z,69.60
2022-08-29T02:16:31.906Z,69.70
2022-08-29T02:18:59.762Z,69.70
2022-08-29T02:21:29.018Z,69.70
2022-08-29T02:23:58.929Z,69.90
2022-08-29T02:26:26.120Z,69.90
2022-08-29T02:28:52.928Z,69.80
2022-08-29T02:31:22.607Z,69.80
2022-08-29T02:33:50.120Z,69.90
2022-08-29T02:36:17.096Z,69.90
2022-08-29T02:38:46.567Z,69.90
2022-08-29T02:41:14.395Z,69.90
2022-08-29T02:43:42.131Z,69.90
2022-08-29T02:46:12.446Z,70.00
2022-08-29T02:48:39.159Z,70.00
2022-08-29T02:51:05.981Z,70.10
2022-08-29T02:53:32.665Z,70.20
2022-08-29T02:55:59.318Z,70.20
2022-08-29T02:58:26.058Z,71.00
2022-08-29T03:00:54.116Z,70.30
2022-08-29T03:03:20.962Z,70.50
2022-08-29T03:05:48.022Z,70.50
2022-08-29T03:08:15.011Z,70.60
2022-08-29T03:10:43.298Z,70.60
2022-08-29T03:13:10.868Z,70.90
2022-08-29T03:15:38.143Z,70.80
2022-08-29T03:18:05.277Z,70.80
2022-08-29T03:20:34.475Z,70.90
2022-08-29T03:23:01.671Z,71.10
2022-08-29T03:25:28.549Z,71.10
2022-08-29T03:27:55.230Z,71.20
2022-08-29T03:30:23.971Z,71.20
2022-08-29T03:32:50.924Z,71.40
2022-08-29T03:35:19.502Z,71.30
2022-08-29T03:37:46.376Z,71.50
2022-08-29T03:40:13.663Z,71.60
2022-08-29T03:42:42.768Z,71.80
2022-08-29T03:45:15.500Z,72.10
2022-08-29T03:47:42.665Z,72.20
2022-08-29T03:50:11.102Z,72.00
2022-08-29T03:52:37.821Z,72.00
2022-08-29T03:55:07.407Z,72.10
2022-08-29T03:57:34.775Z,72.20
2022-08-29T04:00:10.194Z,72.30
2022-08-29T04:02:40.054Z,72.40
2022-08-29T04:05:08.438Z,72.50
2022-08-29T04:07:44.846Z,72.50
2022-08-29T04:10:15.156Z,73.00
2022-08-29T04:12:41.808Z,72.70
2022-08-29T04:15:09.376Z,72.60
2022-08-29T04:17:36.249Z,73.00
2022-08-29T04:20:05.459Z,72.90
2022-08-29T04:22:33.904Z,73.00
2022-08-29T04:25:00.556Z,73.10
2022-08-29T04:27:27.759Z,73.20
2022-08-29T04:29:54.394Z,73.30
2022-08-29T04:32:21.109Z,73.30
2022-08-29T04:34:47.889Z,73.40
2022-08-29T04:37:14.921Z,73.60
2022-08-29T04:39:42.010Z,73.70
2022-08-29T04:42:08.656Z,73.90
2022-08-29T04:44:35.565Z,74.20
2022-08-29T04:47:02.212Z,74.50
2022-08-29T04:49:28.970Z,74.70
2022-08-29T04:51:55.610Z,74.90
2022-08-29T04:54:23.184Z,75.10
2022-08-29T04:56:49.876Z,75.30
2022-08-29T04:59:17.850Z,75.50
2022-08-29T05:01:45.478Z,75.60
2022-08-29T05:04:14.593Z,75.80
2022-08-29T05:06:41.815Z,75.90
2022-08-29T05:09:08.694Z,76.00
2022-08-29T05:11:35.391Z,76.10
2022-08-29T05:14:02.598Z,76.30
2022-08-29T05:16:30.695Z,76.60
2022-08-29T05:18:59.435Z,76.90
2022-08-29T05:21:35.240Z,77.10
2022-08-29T05:24:07.403Z,77.40
2022-08-29T05:26:37.192Z,77.50
2022-08-29T05:29:08.653Z,77.70
2022-08-29T05:31:37.013Z,78.00
2022-08-29T05:34:14.074Z,78.00
2022-08-29T05:36:52.099Z,78.20
2022-08-29T05:39:19.663Z,78.50
2022-08-29T05:41:46.406Z,78.70
2022-08-29T05:44:13.186Z,78.80
2022-08-29T05:46:40.496Z,78.90
2022-08-29T05:49:07.262Z,79.20
2022-08-29T05:51:39.337Z,79.40
2022-08-29T05:54:07.156Z,79.60
2022-08-29T05:56:34.125Z,79.90
2022-08-29T05:59:01.184Z,80.00
2022-08-29T06:01:32.965Z,80.00
2022-08-29T06:04:00.962Z,80.30
2022-08-29T06:06:29.115Z,80.40
2022-08-29T06:08:57.226Z,80.60
2022-08-29T06:11:27.013Z,80.60
2022-08-29T06:13:54.345Z,81.00
2022-08-29T06:16:23.286Z,80.70
2022-08-29T06:18:50.633Z,80.70
2022-08-29T06:21:17.849Z,80.50
2022-08-29T06:23:45.740Z,80.40
2022-08-29T06:26:14.230Z,79.30
2022-08-29T06:28:45.808Z,79.30
2022-08-29T06:31:22.070Z,79.50
2022-08-29T06:33:53.805Z,79.00
2022-08-29T06:36:20.990Z,78.30
2022-08-29T06:38:48.135Z,77.80
2022-08-29T06:41:17.014Z,77.20
2022-08-29T06:43:44.839Z,76.80
2022-08-29T06:46:34.691Z,76.40
2022-08-29T06:49:04.610Z,75.70
2022-08-29T06:51:33.251Z,75.70
2022-08-29T06:54:01.529Z,75.50
2022-08-29T06:56:29.872Z,74.50
2022-08-29T06:58:56.937Z,74.40
2022-08-29T07:01:24.142Z,74.40
2022-08-29T07:03:54.229Z,75.10
2022-08-29T07:06:21.362Z,74.60
2022-08-29T07:08:55.437Z,73.80
2022-08-29T07:11:24.787Z,73.30
2022-08-29T07:13:51.546Z,72.80
2022-08-29T07:16:18.984Z,72.40
2022-08-29T07:18:47.171Z,72.50
2022-08-29T07:21:20.320Z,71.90
2022-08-29T07:23:48.215Z,71.40
2022-08-29T07:26:21.068Z,71.40
2022-08-29T07:28:49.770Z,71.10
2022-08-29T07:31:16.754Z,70.60
2022-08-29T07:33:43.715Z,70.20
2022-08-29T07:36:10.703Z,70.00
2022-08-29T07:38:38.265Z,70.00
2022-08-29T07:41:08.573Z,70.10
2022-08-29T07:43:35.623Z,70.60
2022-08-29T07:46:20.369Z,70.70
2022-08-29T07:48:47.684Z,70.20
2022-08-29T07:51:17.580Z,70.60
2022-08-29T07:53:45.542Z,70.30
2022-08-29T07:56:16.472Z,70.10
2022-08-29T07:58:43.513Z,68.90
2022-08-29T08:01:12.581Z,68.70
2022-08-29T08:03:47.788Z,68.40
2022-08-29T08:06:14.621Z,68.20
2022-08-29T08:08:41.914Z,67.90
2022-08-29T08:11:09.535Z,67.60
2022-08-29T08:13:37.705Z,67.20
2022-08-29T08:16:10.671Z,66.90
2022-08-29T08:18:39.096Z,65.70
2022-08-29T08:21:06.065Z,65.50
2022-08-29T08:23:33.324Z,64.40
2022-08-29T08:26:00.871Z,63.50
2022-08-29T08:28:29.167Z,63.30
2022-08-29T08:30:56.658Z,63.60
2022-08-29T08:33:23.808Z,62.70
2022-08-29T08:35:51.047Z,61.70
2022-08-29T08:38:18.178Z,60.60
2022-08-29T08:41:05.711Z,59.40
2022-08-29T08:43:49.367Z,57.80
2022-08-29T08:46:16.675Z,56.90
2022-08-29T08:48:44.480Z,57.40
2022-08-29T08:51:33.778Z,56.60
2022-08-29T08:54:03.940Z,55.10
2022-08-29T08:56:44.391Z,55.10
2022-08-29T08:59:23.138Z,54.50
2022-08-29T09:02:22.668Z,53.90
2022-08-29T09:05:20.395Z,53.60
2022-08-29T09:08:22.217Z,53.80
2022-08-29T09:11:13.345Z,54.10
2022-08-29T09:13:55.484Z,54.10
2022-08-29T09:16:46.785Z,54.60
2022-08-29T09:19:17.263Z,54.70
2022-08-29T09:21:55.272Z,55.30
2022-08-29T09:24:40.683Z,54.80
2022-08-29T09:27:08.997Z,55.10
2022-08-29T09:29:37.274Z,55.80
2022-08-29T09:32:09.949Z,55.90
2022-08-29T09:35:07.333Z,55.70
2022-08-29T09:37:34.906Z,56.20
2022-08-29T09:40:10.933Z,55.40
2022-08-29T09:42:42.182Z,55.30
2022-08-29T09:45:24.905Z,54.60
2022-08-29T09:48:15.826Z,53.70
2022-08-29T09:50:43.547Z,53.10
2022-08-29T09:53:24.372Z,53.40
2022-08-29T09:55:52.392Z,52.80
2022-08-29T09:58:22.054Z,52.40
2022-08-29T10:01:00.234Z,51.40
2022-08-29T10:03:30.093Z,50.60
2022-08-29T10:06:16.380Z,50.50
2022-08-29T10:08:57.176Z,49.80
2022-08-29T10:11:46.054Z,49.60
2022-08-29T10:14:38.167Z,49.70
2022-08-29T10:17:57.230Z,49.80
2022-08-29T10:20:48.103Z,50.50
2022-08-29T10:23:39.930Z,50.30
2022-08-29T10:26:24.402Z,50.00
2022-08-29T10:28:59.325Z,50.60
2022-08-29T10:31:54.569Z,50.30
2022-08-29T10:34:32.342Z,49.90
2022-08-29T10:37:08.152Z,49.90
2022-08-29T10:40:06.659Z,50.30
2022-08-29T10:42:37.028Z,51.20
2022-08-29T10:45:06.645Z,51.80
2022-08-29T10:47:40.671Z,51.50
2022-08-29T10:50:21.751Z,51.40
2022-08-29T10:53:13.132Z,51.20
2022-08-29T10:56:04.489Z,50.60
2022-08-29T10:58:55.104Z,50.70
2022-08-29T11:01:28.863Z,50.40
2022-08-29T11:04:17.703Z,50.30
2022-08-29T11:06:52.740Z,50.20
2022-08-29T11:09:35.241Z,50.50
2022-08-29T11:12:17.339Z,50.20
2022-08-29T11:15:08.925Z,50.30
2022-08-29T11:17:40.664Z,50.30
2022-08-29T11:20:27.397Z,50.50
2022-08-29T11:23:11.640Z,50.90
2022-08-29T11:25:41.926Z,51.00
2022-08-29T11:28:17.813Z,51.20
2022-08-29T11:30:57.208Z,51.40
2022-08-29T11:33:32.832Z,51.50
2022-08-29T11:36:27.859Z,51.80
2022-08-29T11:39:25.458Z,52.10
2022-08-29T11:41:58.556Z,52.10
2022-08-29T11:44:34.611Z,52.30
2022-08-29T11:47:21.521Z,52.40
2022-08-29T11:49:51.460Z,52.60
2022-08-29T11:52:22.694Z,52.80
2022-08-29T11:54:54.252Z,52.50
2022-08-29T11:57:20.933Z,52.70
2022-08-29T11:59:56.569Z,52.90
2022-08-29T12:02:48.721Z,53.20
2022-08-29T12:05:20.669Z,53.00
2022-08-29T12:07:53.635Z,53.30
2022-08-29T12:10:20.356Z,53.20
2022-08-29T12:12:51.214Z,53.10
2022-08-29T12:15:27.218Z,53.00
2022-08-29T12:18:02.516Z,53.20
2022-08-29T12:20:47.940Z,53.20
2022-08-29T12:23:14.819Z,52.90
2022-08-29T12:26:09.880Z,53.00
2022-08-29T12:28:59.442Z,53.10
2022-08-29T12:31:35.592Z,52.80
2022-08-29T12:34:24.762Z,53.00
2022-08-29T12:37:18.333Z,53.40
2022-08-29T12:39:53.896Z,53.20
2022-08-29T12:42:37.009Z,53.10
2022-08-29T12:45:12.734Z,53.20
2022-08-29T12:47:57.432Z,53.10
2022-08-29T12:50:26.964Z,53.20
2022-08-29T12:53:06.904Z,53.30
2022-08-29T12:55:40.421Z,53.50
2022-08-29T12:58:09.287Z,53.40
2022-08-29T13:00:36.702Z,53.30
2022-08-29T13:03:15.271Z,53.40
2022-08-29T13:05:43.383Z,53.50
2022-08-29T13:08:15.420Z,53.40
2022-08-29T13:11:00.127Z,53.50
2022-08-29T13:13:28.377Z,53.30
2022-08-29T13:16:00.321Z,53.30
2022-08-29T13:18:27.735Z,53.50
2022-08-29T13:21:18.955Z,53.60
2022-08-29T13:23:56.442Z,53.60
2022-08-29T13:26:27.595Z,53.60
2022-08-29T13:29:14.482Z,53.60
2022-08-29T13:31:42.265Z,53.80
2022-08-29T13:34:19.177Z,54.00
2022-08-29T13:37:03.332Z,54.40
2022-08-29T13:39:41.742Z,54.40
2022-08-29T13:42:19.055Z,54.60
2022-08-29T13:44:48.828Z,54.50
2022-08-29T13:47:25.312Z,54.30
2022-08-29T13:50:01.422Z,54.10
2022-08-29T13:52:31.529Z,54.20
2022-08-29T13:54:59.370Z,54.20
2022-08-29T13:57:29.164Z,54.50
2022-08-29T13:59:57.048Z,54.50
2022-08-29T14:02:25.191Z,54.40
2022-08-29T14:04:52.218Z,54.30
2022-08-29T14:07:30.996Z,54.10
2022-08-29T14:09:58.582Z,54.00
2022-08-29T14:12:33.590Z,53.90
2022-08-29T14:15:09.292Z,53.90
2022-08-29T14:17:39.061Z,54.00
2022-08-29T14:20:07.553Z,54.10
2022-08-29T14:22:34.373Z,54.20
2022-08-29T14:25:02.576Z,54.20
2022-08-29T14:27:29.655Z,54.10
2022-08-29T14:29:56.714Z,54.10
2022-08-29T14:32:24.239Z,54.00
2022-08-29T14:34:53.797Z,53.90
2022-08-29T14:37:21.030Z,54.00
2022-08-29T14:39:49.939Z,53.80
2022-08-29T14:42:17.784Z,53.80
2022-08-29T14:44:44.605Z,53.80
2022-08-29T14:47:11.381Z,53.70
2022-08-29T14:49:38.242Z,53.50
2022-08-29T14:52:05.598Z,53.40
2022-08-29T14:54:32.363Z,54.10
2022-08-29T14:56:59.535Z,53.30
2022-08-29T14:59:26.656Z,53.30
2022-08-29T15:01:54.964Z,53.20
2022-08-29T15:04:35.983Z,53.30
2022-08-29T15:07:13.489Z,53.40
2022-08-29T15:09:43.604Z,53.50
2022-08-29T15:12:12.267Z,53.70
2022-08-29T15:14:39.376Z,53.80
2022-08-29T15:17:06.402Z,53.90
2022-08-29T15:22:21.765Z,54.20
2022-08-29T15:24:50.259Z,54.20
2022-08-29T15:27:21.587Z,54.00
2022-08-29T15:29:50.529Z,53.90
2022-08-29T15:32:19.612Z,53.90
2022-08-29T15:34:46.452Z,53.80
2022-08-29T15:37:13.770Z,53.90
2022-08-29T15:39:41.452Z,53.80
2022-08-29T15:42:11.212Z,53.90
2022-08-29T15:44:39.653Z,53.90
2022-08-29T15:47:07.007Z,54.10
2022-08-29T15:49:38.434Z,54.10
2022-08-29T15:52:05.274Z,54.20
2022-08-29T15:54:32.005Z,54.20
2022-08-29T15:56:58.770Z,54.20
2022-08-29T15:59:41.484Z,54.30
2022-08-29T16:02:14.338Z,54.10
2022-08-29T16:04:47.345Z,54.00
2022-08-29T16:07:14.824Z,54.00
2022-08-29T16:09:42.321Z,54.00
2022-08-29T16:12:10.096Z,54.20
2022-08-29T16:17:23.986Z,54.60
2022-08-29T16:19:50.638Z,54.60
2022-08-29T16:22:17.302Z,54.60
2022-08-29T16:24:44.197Z,54.70
2022-08-29T16:27:11.030Z,54.90
2022-08-29T16:29:37.911Z,55.20
2022-08-29T16:32:05.748Z,55.20
2022-08-29T16:34:32.400Z,55.30
2022-08-29T16:37:02.439Z,55.40
2022-08-29T16:39:29.594Z,55.50
2022-08-29T16:41:56.483Z,55.60
2022-08-29T16:44:23.574Z,55.60
2022-08-29T16:46:50.260Z,55.70
2022-08-29T16:49:17.027Z,55.80
2022-08-29T16:51:43.881Z,55.90
2022-08-29T16:54:12.292Z,56.00
2022-08-29T16:56:39.651Z,56.10
2022-08-29T16:59:06.465Z,56.20
2022-08-29T17:01:39.052Z,56.30
2022-08-29T17:04:10.536Z,56.50
2022-08-29T17:06:39.520Z,56.70
2022-08-29T17:09:08.839Z,56.80
2022-08-29T17:11:36.880Z,56.90
2022-08-29T17:14:04.596Z,57.00
2022-08-29T17:16:31.917Z,57.10
2022-08-29T17:18:58.722Z,57.10
2022-08-29T17:21:26.938Z,57.30
2022-08-29T17:23:55.207Z,57.40
2022-08-29T17:26:22.702Z,57.40
2022-08-29T17:28:49.430Z,57.40
2022-08-29T17:31:16.216Z,57.50
2022-08-29T17:33:42.958Z,57.60
2022-08-29T17:36:10.762Z,57.60
2022-08-29T17:38:41.245Z,57.70
2022-08-29T17:41:15.366Z,57.80
2022-08-29T17:43:45.063Z,57.70
2022-08-29T17:46:11.927Z,57.70
2022-08-29T17:48:38.708Z,57.80
2022-08-29T17:51:06.001Z,57.80
2022-08-29T17:53:33.043Z,57.90
2022-08-29T17:56:30.342Z,57.90
2022-08-29T17:58:58.435Z,58.20
2022-08-29T18:01:25.129Z,58.10
2022-08-29T18:03:58.845Z,58.10
2022-08-29T18:06:30.194Z,58.10
2022-08-29T18:08:59.083Z,58.20
2022-08-29T18:11:26.997Z,58.20
2022-08-29T18:13:55.068Z,58.40
2022-08-29T18:16:21.973Z,58.30
2022-08-29T18:18:48.898Z,58.40
2022-08-29T18:21:18.564Z,58.40
2022-08-29T18:23:45.750Z,58.40
2022-08-29T18:26:13.262Z,58.50
2022-08-29T18:28:40.951Z,58.50
2022-08-29T18:31:09.343Z,58.50
2022-08-29T18:33:57.363Z,58.60
2022-08-29T18:36:25.858Z,58.60
2022-08-29T18:38:52.794Z,58.60
2022-08-29T18:41:19.521Z,58.70
2022-08-29T18:43:46.701Z,58.80
2022-08-29T18:46:13.578Z,58.70
2022-08-29T18:48:42.008Z,58.90
2022-08-29T18:51:08.730Z,58.90
2022-08-29T18:53:35.395Z,59.00
2022-08-29T18:56:02.515Z,59.20
2022-08-29T18:58:31.407Z,59.10
2022-08-29T19:00:59.335Z,59.20
2022-08-29T19:03:26.254Z,59.40
2022-08-29T19:05:53.836Z,59.30
2022-08-29T19:08:24.489Z,59.40
2022-08-29T19:10:55.347Z,59.60
2022-08-29T19:13:22.606Z,60.20
2022-08-29T19:15:56.213Z,59.60
2022-08-29T19:18:22.998Z,59.80
2022-08-29T19:21:02.340Z,59.80
2022-08-29T19:23:43.773Z,59.80
2022-08-29T19:26:15.049Z,60.00
2022-08-29T19:28:42.266Z,60.00
2022-08-29T19:31:09.250Z,60.00
2022-08-29T19:33:36.664Z,60.20
2022-08-29T19:36:05.836Z,60.20
2022-08-29T19:38:32.738Z,60.20
2022-08-29T19:40:59.865Z,60.40
2022-08-29T19:43:29.383Z,60.40
2022-08-29T19:45:57.495Z,60.50
2022-08-29T19:48:26.475Z,60.50
2022-08-29T19:50:54.085Z,60.60
2022-08-29T19:53:25.996Z,60.80
2022-08-29T19:55:55.544Z,61.00
2022-08-29T19:58:22.753Z,60.80
2022-08-29T20:00:57.896Z,60.80
2022-08-29T20:03:24.626Z,61.00
2022-08-29T20:05:51.590Z,61.10
2022-08-29T20:08:18.263Z,61.20
2022-08-29T20:10:49.582Z,61.30
2022-08-29T20:13:17.352Z,61.40
2022-08-29T20:15:44.440Z,61.70
2022-08-29T20:18:13.013Z,61.90
2022-08-29T20:20:40.238Z,62.10
2022-08-29T20:23:08.237Z,62.40
2022-08-29T20:25:35.534Z,62.60
2022-08-29T20:28:03.031Z,62.80
2022-08-29T20:30:31.679Z,62.80
2022-08-29T20:32:58.825Z,63.00
2022-08-29T20:35:44.595Z,63.10
2022-08-29T20:38:11.439Z,63.30
2022-08-29T20:40:46.606Z,63.40
2022-08-29T20:43:17.500Z,63.70
2022-08-29T20:45:44.599Z,63.90
2022-08-29T20:48:12.327Z,63.90
2022-08-29T20:50:40.076Z,64.00
2022-08-29T20:53:07.251Z,64.10
2022-08-29T20:55:34.236Z,64.20
2022-08-29T20:58:01.101Z,64.30
2022-08-29T21:00:28.318Z,64.40
2022-08-29T21:03:13.749Z,64.60
2022-08-29T21:05:43.290Z,64.60
2022-08-29T21:08:13.332Z,64.60
2022-08-29T21:10:40.041Z,64.70
2022-08-29T21:13:06.790Z,65.00
2022-08-29T21:15:33.882Z,64.90
2022-08-29T21:18:00.675Z,64.90
2022-08-29T21:20:27.916Z,64.90
2022-08-29T21:22:54.571Z,65.00
2022-08-29T21:25:21.454Z,65.10
2022-08-29T21:27:48.162Z,65.30
2022-08-29T21:30:15.434Z,65.30
2022-08-29T21:32:42.175Z,65.50
2022-08-29T21:35:09.169Z,66.20
2022-08-29T21:37:35.909Z,65.70
2022-08-29T21:40:05.611Z,65.80
2022-08-29T21:42:32.875Z,66.00
2022-08-29T21:44:59.691Z,66.10
2022-08-29T21:47:26.908Z,66.20
2022-08-29T21:49:53.899Z,66.30
2022-08-29T21:52:21.339Z,66.50
2022-08-29T21:54:49.896Z,66.70
2022-08-29T21:57:39.440Z,67.00
2022-08-29T22:00:08.288Z,67.10
2022-08-29T22:02:35.065Z,67.30
2022-08-29T22:05:02.379Z,67.40
2022-08-29T22:07:30.158Z,67.60
2022-08-29T22:09:56.792Z,67.70
2022-08-29T22:12:24.867Z,68.10
2022-08-29T22:15:10.408Z,68.20
2022-08-29T22:17:37.261Z,68.30
2022-08-29T22:20:04.807Z,68.50
2022-08-29T22:22:31.438Z,68.70
2022-08-29T22:24:58.131Z,68.80
2022-08-29T22:27:24.775Z,69.10
2022-08-29T22:29:51.405Z,69.40
2022-08-29T22:32:18.095Z,69.60
2022-08-29T22:34:44.736Z,69.80
2022-08-29T22:37:11.369Z,70.00
2022-08-29T22:39:38.050Z,70.30
2022-08-29T22:42:04.953Z,70.70
2022-08-29T22:45:00.026Z,70.80
2022-08-29T22:47:18.838Z,71.00
2022-08-29T22:49:45.744Z,71.20
2022-08-29T22:52:12.716Z,71.60
2022-08-29T22:54:40.062Z,71.70
2022-08-29T22:57:15.891Z,72.00
2022-08-29T22:59:43.591Z,72.80
2022-08-29T23:02:11.795Z,72.60
2022-08-29T23:04:39.002Z,72.70
2022-08-29T23:07:07.224Z,72.80
2022-08-29T23:09:35.706Z,73.20
2022-08-29T23:12:06.733Z,73.50
2022-08-29T23:14:38.320Z,74.10
2022-08-29T23:17:06.847Z,74.60
2022-08-29T23:19:34.368Z,74.20
2022-08-29T23:22:02.501Z,74.30
2022-08-29T23:24:30.342Z,74.50
2022-08-29T23:26:57.233Z,74.60
2022-08-29T23:29:24.038Z,74.80
2022-08-29T23:31:50.773Z,75.10
2022-08-29T23:34:17.464Z,75.20
2022-08-29T23:36:44.258Z,75.50
2022-08-29T23:39:11.101Z,75.60
2022-08-29T23:41:37.821Z,76.00
2022-08-29T23:44:04.834Z,76.00
2022-08-29T23:46:31.638Z,76.10
2022-08-29T23:48:58.396Z,76.10
2022-08-29T23:51:25.046Z,76.40
2022-08-29T23:53:52.008Z,76.60
2022-08-29T23:56:20.411Z,76.70
2022-08-29T23:58:47.860Z,76.80
